Terminal Aerodrome Forecast
Issued by NWS Lake Charles, LA

Home | Current Version | Previous Version | Text Only | Print | Product List | Glossary On
Versions: 1 2 3 4 5 6 7 8 9 10 11 12 13 14
000
FTUS44 KLCH 020500
TAFLFT
TAF
KLFT 020520Z 0206/0306 21004KT P6SM FEW011 SCT025 BKN050
     FM021400 VRB04KT P6SM VCSH FEW015 BKN025 OVC200
      TEMPO 0220/0224 5SM TSRA BKN035CB BKN050=

USA.gov is the U.S. government's official web portal to all federal, state and local government web resources and services.